PDT,Max TemperatureF,Mean TemperatureF,Min TemperatureF,Max Dew PointF,MeanDew PointF,Min DewpointF,Max Humidity, Mean Humidity, Min Humidity, Max Sea Level PressureIn, Mean Sea Level PressureIn, Min Sea Level PressureIn, Max VisibilityMiles, Mean VisibilityMiles, Min VisibilityMiles, Max Wind SpeedMPH, Mean Wind SpeedMPH, Max Gust SpeedMPH,PrecipitationIn, CloudCover, Events, WindDirDegrees
2014-3-1,61,54,47,50,48,45,96,76,55,29.79,29.69,29.54,10,10,4,9,4,11,0.03,5,Rain,80
2014-3-2,55,54,52,53,51,49,100,95,89,29.99,29.91,29.79,10,4,1,26,15,34,0.54,8,Rain,161
2014-3-3,56,55,53,54,53,51,100,97,93,30.05,29.96,29.85,10,6,1,30,13,40,0.80,8,Rain,167
2014-3-4,59,55,51,54,52,49,100,86,72,30.08,30.04,29.96,10,7,2,17,7,24,0.13,6,Rain,147
2014-3-5,60,57,54,55,53,52,93,84,75,29.96,29.83,29.73,10,6,1,37,19,47,0.46,7,Rain,171
2014-3-6,57,54,51,52,51,48,96,91,86,30.26,30.10,29.92,10,5,2,29,15,36,0.03,8,Rain,168
2014-3-7,58,52,46,50,47,43,100,86,72,30.28,30.23,30.15,10,8,3,10,6,14,0.00,3,,48
2014-3-8,59,52,45,55,48,44,100,84,67,30.16,30.12,30.08,10,8,4,21,9,27,0.02,6,Rain,142
2014-3-9,59,56,52,56,53,51,100,97,93,30.14,30.10,30.06,8,3,1,24,14,34,0.72,8,Rain,172
2014-3-10,56,50,43,52,48,42,100,83,66,30.45,30.26,30.13,10,8,2,21,12,29,0.27,5,Rain,307
2014-3-11,58,50,41,47,40,31,89,64,38,30.44,30.29,30.17,10,10,9,21,10,27,0.00,0,,2
2014-3-12,64,53,42,48,39,26,100,64,28,30.23,30.16,30.10,10,7,1,14,7,19,0.00,2,,10
2014-3-13,57,49,40,49,44,39,100,81,61,30.15,30.11,30.09,10,5,1,15,6,19,0.00,4,,337
2014-3-14,57,53,49,52,49,47,100,90,80,30.35,30.26,30.15,10,8,0,12,6,14,0.00,6,Fog,267
2014-3-15,55,49,42,50,47,42,100,89,77,30.41,30.35,30.31,10,4,0,8,3,10,0.00,5,Fog,223
2014-3-16,59,54,48,50,48,45,100,86,71,30.40,30.32,30.17,10,7,0,28,10,39,0.25,8,Fog-Rain,134
2014-3-17,54,49,44,45,40,33,89,68,46,30.38,30.31,30.26,10,9,5,30,16,41,0.01,2,Rain,344
2014-3-18,56,52,47,45,40,32,86,71,56,30.26,30.13,30.03,10,9,2,30,17,38,0.00,0,,338
2014-3-19,55,47,38,46,43,37,93,82,71,30.21,30.15,30.06,10,6,1,25,11,34,0.00,0,,332
2014-3-20,54,45,36,43,39,34,100,80,59,30.21,30.17,30.06,10,6,1,37,15,51,0.00,1,,347
2014-3-21,52,46,40,41,38,33,85,73,61,30.12,30.08,30.06,10,6,1,30,12,41,0.00,1,,337
2014-3-22,54,44,34,44,39,33,100,77,54,30.16,30.13,30.10,10,8,3,17,6,22,0.00,0,,333
2014-3-23,57,47,37,45,41,36,96,76,55,30.21,30.18,30.14,10,7,3,13,5,16,0.00,1,,359
2014-3-24,59,51,42,48,44,37,100,78,55,30.16,30.11,29.99,10,6,0,18,9,20,0.00,4,Fog,161
2014-3-25,58,53,47,51,47,34,93,70,46,29.94,29.85,29.75,10,8,4,23,15,33,0.44,7,Rain,156
2014-3-26,55,52,48,52,47,43,100,95,89,29.85,29.74,29.68,10,7,2,22,15,30,0.37,8,Rain,171
2014-3-27,55,51,47,50,46,43,93,87,80,30.02,29.96,29.85,10,7,2,21,14,26,0.34,8,Rain,164
2014-3-28,54,53,51,53,51,47,100,92,83,30.00,29.93,29.88,10,6,1,30,23,38,0.86,8,Rain,166
2014-3-29,56,54,51,52,49,44,96,91,86,30.06,30.01,29.97,10,8,2,22,14,30,0.11,8,Rain,175
2014-3-30,53,48,43,46,44,40,93,82,71,30.11,30.06,29.95,10,9,2,20,7,24,0.18,5,Rain,136
2014-3-31,51,48,45,44,40,32,93,72,50,29.93,29.78,29.74,10,9,4,33,18,46,0.45,6,Rain,142